sensor_id;sensor_type;location;lat;lon;timestamp;P1;durP1;ratioP1;P2;durP2;ratioP2
80334;SDS011;69653;52.674;13.574;2023-07-22T00:00:53;12.60;;;7.07;;
80334;SDS011;69653;52.674;13.574;2023-07-22T00:03:18;11.30;;;6.87;;
80334;SDS011;69653;52.674;13.574;2023-07-22T00:05:44;11.27;;;7.33;;
80334;SDS011;69653;52.674;13.574;2023-07-22T00:08:09;12.43;;;7.77;;
80334;SDS011;69653;52.674;13.574;2023-07-22T00:10:34;13.97;;;8.20;;
80334;SDS011;69653;52.674;13.574;2023-07-22T00:13:00;11.27;;;7.00;;
80334;SDS011;69653;52.674;13.574;2023-07-22T00:15:26;9.25;;;6.50;;
80334;SDS011;69653;52.674;13.574;2023-07-22T00:17:51;10.57;;;7.23;;
80334;SDS011;69653;52.674;13.574;2023-07-22T00:20:16;11.17;;;6.80;;
80334;SDS011;69653;52.674;13.574;2023-07-22T00:22:42;11.05;;;6.70;;
80334;SDS011;69653;52.674;13.574;2023-07-22T00:25:09;11.27;;;6.68;;
80334;SDS011;69653;52.674;13.574;2023-07-22T00:27:36;11.55;;;7.00;;
80334;SDS011;69653;52.674;13.574;2023-07-22T00:30:03;10.88;;;7.20;;
80334;SDS011;69653;52.674;13.574;2023-07-22T00:32:30;10.93;;;7.07;;
80334;SDS011;69653;52.674;13.574;2023-07-22T00:34:55;10.53;;;6.73;;
80334;SDS011;69653;52.674;13.574;2023-07-22T00:37:21;10.40;;;6.70;;
80334;SDS011;69653;52.674;13.574;2023-07-22T00:39:46;11.05;;;7.07;;
80334;SDS011;69653;52.674;13.574;2023-07-22T00:42:11;10.38;;;6.85;;
80334;SDS011;69653;52.674;13.574;2023-07-22T00:44:37;10.20;;;6.77;;
80334;SDS011;69653;52.674;13.574;2023-07-22T00:47:02;10.17;;;6.67;;
80334;SDS011;69653;52.674;13.574;2023-07-22T00:49:28;9.23;;;6.40;;
80334;SDS011;69653;52.674;13.574;2023-07-22T00:51:56;9.75;;;6.18;;
80334;SDS011;69653;52.674;13.574;2023-07-22T00:54:26;10.13;;;6.20;;
80334;SDS011;69653;52.674;13.574;2023-07-22T00:56:51;11.37;;;6.40;;
80334;SDS011;69653;52.674;13.574;2023-07-22T00:59:19;9.65;;;6.07;;
80334;SDS011;69653;52.674;13.574;2023-07-22T01:01:44;10.02;;;7.03;;
80334;SDS011;69653;52.674;13.574;2023-07-22T01:04:10;10.87;;;6.70;;
80334;SDS011;69653;52.674;13.574;2023-07-22T01:06:35;10.23;;;6.55;;
80334;SDS011;69653;52.674;13.574;2023-07-22T01:09:01;10.45;;;7.07;;
80334;SDS011;69653;52.674;13.574;2023-07-22T01:11:26;11.70;;;7.18;;
80334;SDS011;69653;52.674;13.574;2023-07-22T01:13:52;9.37;;;6.73;;
80334;SDS011;69653;52.674;13.574;2023-07-22T01:16:23;11.25;;;6.32;;
80334;SDS011;69653;52.674;13.574;2023-07-22T01:18:49;8.88;;;6.05;;
80334;SDS011;69653;52.674;13.574;2023-07-22T01:21:15;9.77;;;6.68;;
80334;SDS011;69653;52.674;13.574;2023-07-22T01:23:41;9.50;;;6.43;;
80334;SDS011;69653;52.674;13.574;2023-07-22T01:26:07;10.43;;;6.20;;
80334;SDS011;69653;52.674;13.574;2023-07-22T01:28:34;9.23;;;5.67;;
80334;SDS011;69653;52.674;13.574;2023-07-22T01:31:01;9.63;;;6.15;;
80334;SDS011;69653;52.674;13.574;2023-07-22T01:33:26;9.43;;;5.77;;
80334;SDS011;69653;52.674;13.574;2023-07-22T01:35:52;9.90;;;5.93;;
80334;SDS011;69653;52.674;13.574;2023-07-22T01:38:18;9.77;;;5.97;;
80334;SDS011;69653;52.674;13.574;2023-07-22T01:40:44;9.25;;;5.63;;
80334;SDS011;69653;52.674;13.574;2023-07-22T01:43:09;10.18;;;6.07;;
80334;SDS011;69653;52.674;13.574;2023-07-22T01:45:35;9.57;;;6.27;;
80334;SDS011;69653;52.674;13.574;2023-07-22T01:48:00;8.37;;;5.77;;
80334;SDS011;69653;52.674;13.574;2023-07-22T01:50:25;9.95;;;6.00;;
80334;SDS011;69653;52.674;13.574;2023-07-22T01:52:51;10.70;;;6.60;;
80334;SDS011;69653;52.674;13.574;2023-07-22T01:55:17;9.43;;;6.10;;
80334;SDS011;69653;52.674;13.574;2023-07-22T01:57:43;9.13;;;5.90;;
80334;SDS011;69653;52.674;13.574;2023-07-22T02:00:09;7.55;;;5.45;;
80334;SDS011;69653;52.674;13.574;2023-07-22T02:02:36;11.80;;;5.90;;
80334;SDS011;69653;52.674;13.574;2023-07-22T02:05:02;8.95;;;6.13;;
80334;SDS011;69653;52.674;13.574;2023-07-22T02:07:27;9.93;;;5.95;;
80334;SDS011;69653;52.674;13.574;2023-07-22T02:09:54;9.57;;;5.95;;
80334;SDS011;69653;52.674;13.574;2023-07-22T02:12:19;10.50;;;6.50;;
80334;SDS011;69653;52.674;13.574;2023-07-22T02:14:45;9.32;;;5.85;;
80334;SDS011;69653;52.674;13.574;2023-07-22T02:17:11;8.80;;;5.75;;
80334;SDS011;69653;52.674;13.574;2023-07-22T02:19:36;8.60;;;5.87;;
80334;SDS011;69653;52.674;13.574;2023-07-22T02:22:02;10.13;;;5.68;;
80334;SDS011;69653;52.674;13.574;2023-07-22T02:24:28;10.48;;;6.05;;
80334;SDS011;69653;52.674;13.574;2023-07-22T02:26:54;8.90;;;5.70;;
80334;SDS011;69653;52.674;13.574;2023-07-22T02:29:19;9.57;;;6.37;;
80334;SDS011;69653;52.674;13.574;2023-07-22T02:31:44;10.70;;;6.10;;
80334;SDS011;69653;52.674;13.574;2023-07-22T02:34:11;7.90;;;5.63;;
80334;SDS011;69653;52.674;13.574;2023-07-22T02:36:36;9.20;;;5.90;;
80334;SDS011;69653;52.674;13.574;2023-07-22T02:39:02;7.60;;;5.27;;
80334;SDS011;69653;52.674;13.574;2023-07-22T02:41:28;8.38;;;5.70;;
80334;SDS011;69653;52.674;13.574;2023-07-22T02:43:53;11.73;;;6.03;;
80334;SDS011;69653;52.674;13.574;2023-07-22T02:46:19;9.77;;;6.70;;
80334;SDS011;69653;52.674;13.574;2023-07-22T02:48:44;7.87;;;5.53;;
80334;SDS011;69653;52.674;13.574;2023-07-22T02:51:09;8.80;;;5.03;;
80334;SDS011;69653;52.674;13.574;2023-07-22T02:53:37;9.00;;;6.10;;
80334;SDS011;69653;52.674;13.574;2023-07-22T02:56:06;9.57;;;5.82;;
80334;SDS011;69653;52.674;13.574;2023-07-22T02:58:32;8.30;;;5.57;;
80334;SDS011;69653;52.674;13.574;2023-07-22T03:00:58;7.97;;;5.32;;
80334;SDS011;69653;52.674;13.574;2023-07-22T03:03:23;10.07;;;6.13;;
80334;SDS011;69653;52.674;13.574;2023-07-22T03:05:49;8.65;;;6.22;;
80334;SDS011;69653;52.674;13.574;2023-07-22T03:08:15;8.60;;;5.93;;
80334;SDS011;69653;52.674;13.574;2023-07-22T03:10:40;8.68;;;5.50;;
80334;SDS011;69653;52.674;13.574;2023-07-22T03:13:06;7.87;;;5.37;;
80334;SDS011;69653;52.674;13.574;2023-07-22T03:15:32;10.35;;;5.47;;
80334;SDS011;69653;52.674;13.574;2023-07-22T03:17:57;8.20;;;5.67;;
80334;SDS011;69653;52.674;13.574;2023-07-22T03:20:26;9.90;;;6.47;;
80334;SDS011;69653;52.674;13.574;2023-07-22T03:22:51;8.87;;;5.33;;
80334;SDS011;69653;52.674;13.574;2023-07-22T03:25:17;8.68;;;5.65;;
80334;SDS011;69653;52.674;13.574;2023-07-22T03:27:43;9.02;;;5.45;;
80334;SDS011;69653;52.674;13.574;2023-07-22T03:30:11;7.75;;;5.20;;
80334;SDS011;69653;52.674;13.574;2023-07-22T03:32:40;10.57;;;5.45;;
80334;SDS011;69653;52.674;13.574;2023-07-22T03:35:07;7.75;;;5.28;;
80334;SDS011;69653;52.674;13.574;2023-07-22T03:37:34;8.60;;;5.43;;
80334;SDS011;69653;52.674;13.574;2023-07-22T03:40:01;9.45;;;5.45;;
80334;SDS011;69653;52.674;13.574;2023-07-22T03:42:27;8.23;;;4.60;;
80334;SDS011;69653;52.674;13.574;2023-07-22T03:44:53;10.63;;;5.40;;
80334;SDS011;69653;52.674;13.574;2023-07-22T03:47:19;10.00;;;5.33;;
80334;SDS011;69653;52.674;13.574;2023-07-22T03:49:44;9.77;;;4.88;;
80334;SDS011;69653;52.674;13.574;2023-07-22T03:52:10;9.00;;;5.55;;
80334;SDS011;69653;52.674;13.574;2023-07-22T03:54:39;8.25;;;4.93;;
80334;SDS011;69653;52.674;13.574;2023-07-22T03:57:04;6.97;;;4.80;;
80334;SDS011;69653;52.674;13.574;2023-07-22T03:59:31;7.93;;;4.95;;
80334;SDS011;69653;52.674;13.574;2023-07-22T04:01:56;8.32;;;5.28;;
80334;SDS011;69653;52.674;13.574;2023-07-22T04:04:21;7.13;;;5.30;;
80334;SDS011;69653;52.674;13.574;2023-07-22T04:06:47;7.47;;;5.33;;
80334;SDS011;69653;52.674;13.574;2023-07-22T04:09:12;8.03;;;5.13;;
80334;SDS011;69653;52.674;13.574;2023-07-22T04:11:38;8.45;;;5.20;;
80334;SDS011;69653;52.674;13.574;2023-07-22T04:14:03;9.03;;;5.00;;
80334;SDS011;69653;52.674;13.574;2023-07-22T04:16:28;7.33;;;4.53;;
80334;SDS011;69653;52.674;13.574;2023-07-22T04:18:54;9.63;;;5.25;;
80334;SDS011;69653;52.674;13.574;2023-07-22T04:21:19;7.00;;;4.97;;
80334;SDS011;69653;52.674;13.574;2023-07-22T04:23:45;7.38;;;5.20;;
80334;SDS011;69653;52.674;13.574;2023-07-22T04:26:10;7.60;;;4.37;;
80334;SDS011;69653;52.674;13.574;2023-07-22T04:28:36;6.37;;;4.17;;
80334;SDS011;69653;52.674;13.574;2023-07-22T04:31:01;8.13;;;4.33;;
80334;SDS011;69653;52.674;13.574;2023-07-22T04:33:29;6.72;;;4.30;;
80334;SDS011;69653;52.674;13.574;2023-07-22T04:35:55;6.45;;;4.45;;
80334;SDS011;69653;52.674;13.574;2023-07-22T04:38:22;10.70;;;4.47;;
80334;SDS011;69653;52.674;13.574;2023-07-22T04:40:48;8.00;;;5.03;;
80334;SDS011;69653;52.674;13.574;2023-07-22T04:43:13;6.80;;;4.37;;
80334;SDS011;69653;52.674;13.574;2023-07-22T04:45:38;7.03;;;4.40;;
80334;SDS011;69653;52.674;13.574;2023-07-22T04:48:06;7.45;;;4.68;;
80334;SDS011;69653;52.674;13.574;2023-07-22T04:50:32;9.30;;;4.10;;
80334;SDS011;69653;52.674;13.574;2023-07-22T04:52:58;9.82;;;4.45;;
80334;SDS011;69653;52.674;13.574;2023-07-22T04:55:23;8.03;;;4.33;;
80334;SDS011;69653;52.674;13.574;2023-07-22T04:57:48;9.60;;;4.07;;
80334;SDS011;69653;52.674;13.574;2023-07-22T05:00:16;9.07;;;3.83;;
80334;SDS011;69653;52.674;13.574;2023-07-22T05:02:42;6.82;;;4.15;;
80334;SDS011;69653;52.674;13.574;2023-07-22T05:05:12;6.57;;;4.00;;
80334;SDS011;69653;52.674;13.574;2023-07-22T05:07:37;6.18;;;3.75;;
80334;SDS011;69653;52.674;13.574;2023-07-22T05:10:03;7.07;;;3.37;;
80334;SDS011;69653;52.674;13.574;2023-07-22T05:12:28;5.88;;;3.88;;
80334;SDS011;69653;52.674;13.574;2023-07-22T05:14:54;7.32;;;3.65;;
80334;SDS011;69653;52.674;13.574;2023-07-22T05:17:19;6.30;;;2.90;;
80334;SDS011;69653;52.674;13.574;2023-07-22T05:19:45;6.50;;;3.40;;
80334;SDS011;69653;52.674;13.574;2023-07-22T05:22:10;6.05;;;3.28;;
80334;SDS011;69653;52.674;13.574;2023-07-22T05:24:35;5.67;;;3.13;;
80334;SDS011;69653;52.674;13.574;2023-07-22T05:27:01;5.60;;;3.33;;
80334;SDS011;69653;52.674;13.574;2023-07-22T05:29:26;5.40;;;3.13;;
80334;SDS011;69653;52.674;13.574;2023-07-22T05:31:51;6.60;;;4.03;;
80334;SDS011;69653;52.674;13.574;2023-07-22T05:34:17;7.18;;;3.28;;
80334;SDS011;69653;52.674;13.574;2023-07-22T05:36:42;6.90;;;3.55;;
80334;SDS011;69653;52.674;13.574;2023-07-22T05:39:08;6.80;;;3.97;;
80334;SDS011;69653;52.674;13.574;2023-07-22T05:41:33;8.43;;;4.43;;
80334;SDS011;69653;52.674;13.574;2023-07-22T05:43:59;7.43;;;3.67;;
80334;SDS011;69653;52.674;13.574;2023-07-22T05:46:24;6.27;;;3.40;;
80334;SDS011;69653;52.674;13.574;2023-07-22T05:48:50;7.03;;;3.27;;
80334;SDS011;69653;52.674;13.574;2023-07-22T05:51:15;7.35;;;3.92;;
80334;SDS011;69653;52.674;13.574;2023-07-22T05:53:41;8.30;;;3.63;;
80334;SDS011;69653;52.674;13.574;2023-07-22T05:56:06;7.82;;;3.42;;
80334;SDS011;69653;52.674;13.574;2023-07-22T05:58:32;6.87;;;3.90;;
80334;SDS011;69653;52.674;13.574;2023-07-22T06:00:57;7.10;;;4.00;;
80334;SDS011;69653;52.674;13.574;2023-07-22T06:03:23;8.52;;;4.82;;
80334;SDS011;69653;52.674;13.574;2023-07-22T06:05:48;8.30;;;4.43;;
80334;SDS011;69653;52.674;13.574;2023-07-22T06:08:14;7.10;;;4.10;;
80334;SDS011;69653;52.674;13.574;2023-07-22T06:10:39;8.13;;;4.07;;
80334;SDS011;69653;52.674;13.574;2023-07-22T06:13:05;8.10;;;4.13;;
80334;SDS011;69653;52.674;13.574;2023-07-22T06:15:31;7.50;;;4.18;;
80334;SDS011;69653;52.674;13.574;2023-07-22T06:17:58;8.00;;;4.57;;
80334;SDS011;69653;52.674;13.574;2023-07-22T06:20:23;7.05;;;3.78;;
80334;SDS011;69653;52.674;13.574;2023-07-22T06:22:49;8.50;;;4.05;;
80334;SDS011;69653;52.674;13.574;2023-07-22T06:25:14;7.20;;;4.10;;
80334;SDS011;69653;52.674;13.574;2023-07-22T06:27:39;7.53;;;4.27;;
80334;SDS011;69653;52.674;13.574;2023-07-22T06:30:05;6.47;;;3.43;;
80334;SDS011;69653;52.674;13.574;2023-07-22T06:32:31;7.20;;;3.65;;
80334;SDS011;69653;52.674;13.574;2023-07-22T06:34:56;7.13;;;3.80;;
80334;SDS011;69653;52.674;13.574;2023-07-22T06:37:23;6.85;;;3.40;;
80334;SDS011;69653;52.674;13.574;2023-07-22T06:39:48;7.15;;;3.35;;
80334;SDS011;69653;52.674;13.574;2023-07-22T06:42:14;6.10;;;3.47;;
80334;SDS011;69653;52.674;13.574;2023-07-22T06:44:39;6.55;;;3.50;;
80334;SDS011;69653;52.674;13.574;2023-07-22T06:47:05;7.33;;;3.80;;
80334;SDS011;69653;52.674;13.574;2023-07-22T06:49:30;6.78;;;2.80;;
80334;SDS011;69653;52.674;13.574;2023-07-22T06:51:56;6.72;;;3.22;;
80334;SDS011;69653;52.674;13.574;2023-07-22T06:54:21;7.22;;;3.78;;
80334;SDS011;69653;52.674;13.574;2023-07-22T06:56:47;6.22;;;3.30;;
80334;SDS011;69653;52.674;13.574;2023-07-22T06:59:12;6.40;;;3.33;;
80334;SDS011;69653;52.674;13.574;2023-07-22T07:01:37;7.87;;;4.10;;
80334;SDS011;69653;52.674;13.574;2023-07-22T07:04:03;6.73;;;2.63;;
80334;SDS011;69653;52.674;13.574;2023-07-22T07:06:28;6.78;;;3.00;;
80334;SDS011;69653;52.674;13.574;2023-07-22T07:08:54;8.95;;;3.42;;
80334;SDS011;69653;52.674;13.574;2023-07-22T07:11:20;7.43;;;2.92;;
80334;SDS011;69653;52.674;13.574;2023-07-22T07:13:45;8.10;;;3.67;;
80334;SDS011;69653;52.674;13.574;2023-07-22T07:16:26;6.17;;;2.93;;
80334;SDS011;69653;52.674;13.574;2023-07-22T07:18:56;7.05;;;3.15;;
80334;SDS011;69653;52.674;13.574;2023-07-22T07:21:23;8.35;;;2.90;;
80334;SDS011;69653;52.674;13.574;2023-07-22T07:23:48;5.38;;;2.40;;
80334;SDS011;69653;52.674;13.574;2023-07-22T07:26:14;6.30;;;2.97;;
80334;SDS011;69653;52.674;13.574;2023-07-22T07:28:40;11.25;;;2.90;;
80334;SDS011;69653;52.674;13.574;2023-07-22T07:31:05;6.22;;;3.10;;
80334;SDS011;69653;52.674;13.574;2023-07-22T07:33:31;6.27;;;2.60;;
80334;SDS011;69653;52.674;13.574;2023-07-22T07:35:56;6.75;;;2.53;;
80334;SDS011;69653;52.674;13.574;2023-07-22T07:38:21;7.67;;;2.97;;
80334;SDS011;69653;52.674;13.574;2023-07-22T07:40:51;6.93;;;3.00;;
80334;SDS011;69653;52.674;13.574;2023-07-22T07:43:21;5.63;;;2.75;;
80334;SDS011;69653;52.674;13.574;2023-07-22T07:45:46;8.03;;;2.87;;
80334;SDS011;69653;52.674;13.574;2023-07-22T07:48:12;7.43;;;2.80;;
80334;SDS011;69653;52.674;13.574;2023-07-22T07:50:37;7.25;;;2.60;;
80334;SDS011;69653;52.674;13.574;2023-07-22T07:53:02;7.40;;;2.80;;
80334;SDS011;69653;52.674;13.574;2023-07-22T07:55:28;5.22;;;2.83;;
80334;SDS011;69653;52.674;13.574;2023-07-22T07:57:54;8.23;;;3.85;;
80334;SDS011;69653;52.674;13.574;2023-07-22T08:00:19;36.20;;;13.67;;
80334;SDS011;69653;52.674;13.574;2023-07-22T08:02:46;82.43;;;36.22;;
80334;SDS011;69653;52.674;13.574;2023-07-22T08:05:11;61.05;;;26.25;;
80334;SDS011;69653;52.674;13.574;2023-07-22T08:07:37;20.30;;;9.75;;
80334;SDS011;69653;52.674;13.574;2023-07-22T08:10:03;12.60;;;5.68;;
80334;SDS011;69653;52.674;13.574;2023-07-22T08:12:30;25.92;;;10.68;;
80334;SDS011;69653;52.674;13.574;2023-07-22T08:14:55;18.23;;;9.00;;
80334;SDS011;69653;52.674;13.574;2023-07-22T08:17:21;27.50;;;11.53;;
80334;SDS011;69653;52.674;13.574;2023-07-22T08:19:46;17.60;;;7.57;;
80334;SDS011;69653;52.674;13.574;2023-07-22T08:22:12;8.80;;;4.45;;
80334;SDS011;69653;52.674;13.574;2023-07-22T08:24:37;8.23;;;3.90;;
80334;SDS011;69653;52.674;13.574;2023-07-22T08:27:03;15.60;;;5.70;;
80334;SDS011;69653;52.674;13.574;2023-07-22T08:29:28;10.43;;;5.07;;
80334;SDS011;69653;52.674;13.574;2023-07-22T08:31:54;8.63;;;3.77;;
80334;SDS011;69653;52.674;13.574;2023-07-22T08:34:19;10.67;;;4.10;;
80334;SDS011;69653;52.674;13.574;2023-07-22T08:36:44;9.63;;;4.07;;
80334;SDS011;69653;52.674;13.574;2023-07-22T08:39:10;8.00;;;3.80;;
80334;SDS011;69653;52.674;13.574;2023-07-22T08:41:35;6.57;;;3.17;;
80334;SDS011;69653;52.674;13.574;2023-07-22T08:44:01;5.75;;;3.10;;
80334;SDS011;69653;52.674;13.574;2023-07-22T08:46:29;5.93;;;2.80;;
80334;SDS011;69653;52.674;13.574;2023-07-22T08:48:59;6.38;;;2.67;;
80334;SDS011;69653;52.674;13.574;2023-07-22T08:51:25;10.35;;;3.85;;
80334;SDS011;69653;52.674;13.574;2023-07-22T08:53:53;6.68;;;3.10;;
80334;SDS011;69653;52.674;13.574;2023-07-22T08:56:23;5.88;;;2.80;;
80334;SDS011;69653;52.674;13.574;2023-07-22T08:58:50;6.60;;;3.22;;
80334;SDS011;69653;52.674;13.574;2023-07-22T09:01:16;6.40;;;2.50;;
80334;SDS011;69653;52.674;13.574;2023-07-22T09:03:42;7.53;;;2.70;;
80334;SDS011;69653;52.674;13.574;2023-07-22T09:06:08;5.47;;;2.45;;
80334;SDS011;69653;52.674;13.574;2023-07-22T09:08:34;5.45;;;2.58;;
80334;SDS011;69653;52.674;13.574;2023-07-22T09:10:59;6.45;;;2.40;;
80334;SDS011;69653;52.674;13.574;2023-07-22T09:13:26;7.97;;;3.03;;
80334;SDS011;69653;52.674;13.574;2023-07-22T09:15:51;7.70;;;3.00;;
80334;SDS011;69653;52.674;13.574;2023-07-22T09:18:18;6.00;;;2.83;;
80334;SDS011;69653;52.674;13.574;2023-07-22T09:20:43;7.50;;;2.70;;
80334;SDS011;69653;52.674;13.574;2023-07-22T09:23:08;6.70;;;2.33;;
80334;SDS011;69653;52.674;13.574;2023-07-22T09:25:34;5.30;;;2.50;;
80334;SDS011;69653;52.674;13.574;2023-07-22T09:27:59;6.87;;;2.23;;
80334;SDS011;69653;52.674;13.574;2023-07-22T09:30:26;5.28;;;2.30;;
80334;SDS011;69653;52.674;13.574;2023-07-22T09:33:03;6.03;;;2.42;;
80334;SDS011;69653;52.674;13.574;2023-07-22T09:35:46;4.85;;;2.50;;
80334;SDS011;69653;52.674;13.574;2023-07-22T09:38:12;5.20;;;2.35;;
80334;SDS011;69653;52.674;13.574;2023-07-22T09:40:40;5.30;;;2.00;;
80334;SDS011;69653;52.674;13.574;2023-07-22T09:43:08;7.50;;;3.63;;
80334;SDS011;69653;52.674;13.574;2023-07-22T09:45:34;5.30;;;2.63;;
80334;SDS011;69653;52.674;13.574;2023-07-22T09:48:00;10.43;;;3.20;;
80334;SDS011;69653;52.674;13.574;2023-07-22T09:50:26;5.43;;;1.85;;
80334;SDS011;69653;52.674;13.574;2023-07-22T09:52:56;7.13;;;2.00;;
80334;SDS011;69653;52.674;13.574;2023-07-22T09:55:29;5.38;;;2.00;;
80334;SDS011;69653;52.674;13.574;2023-07-22T09:57:56;4.50;;;1.83;;
80334;SDS011;69653;52.674;13.574;2023-07-22T10:00:33;5.97;;;2.50;;
80334;SDS011;69653;52.674;13.574;2023-07-22T10:03:00;5.07;;;1.95;;
80334;SDS011;69653;52.674;13.574;2023-07-22T10:05:29;4.22;;;1.83;;
80334;SDS011;69653;52.674;13.574;2023-07-22T10:07:58;4.35;;;2.15;;
80334;SDS011;69653;52.674;13.574;2023-07-22T10:10:31;8.20;;;2.40;;
80334;SDS011;69653;52.674;13.574;2023-07-22T10:12:56;4.50;;;2.10;;
80334;SDS011;69653;52.674;13.574;2023-07-22T10:15:23;6.50;;;2.92;;
80334;SDS011;69653;52.674;13.574;2023-07-22T10:17:50;5.55;;;2.10;;
80334;SDS011;69653;52.674;13.574;2023-07-22T10:20:16;7.05;;;1.90;;
80334;SDS011;69653;52.674;13.574;2023-07-22T10:22:45;5.38;;;1.92;;
80334;SDS011;69653;52.674;13.574;2023-07-22T10:25:12;6.13;;;2.53;;
80334;SDS011;69653;52.674;13.574;2023-07-22T10:27:40;4.38;;;1.80;;
80334;SDS011;69653;52.674;13.574;2023-07-22T10:30:06;4.57;;;1.88;;
80334;SDS011;69653;52.674;13.574;2023-07-22T10:32:42;5.15;;;1.60;;
80334;SDS011;69653;52.674;13.574;2023-07-22T10:35:43;5.50;;;2.05;;
80334;SDS011;69653;52.674;13.574;2023-07-22T10:40:44;3.90;;;1.45;;
80334;SDS011;69653;52.674;13.574;2023-07-22T10:43:11;4.50;;;1.63;;
80334;SDS011;69653;52.674;13.574;2023-07-22T10:45:40;4.82;;;1.73;;
80334;SDS011;69653;52.674;13.574;2023-07-22T10:48:07;4.60;;;1.60;;
80334;SDS011;69653;52.674;13.574;2023-07-22T10:50:48;4.05;;;1.48;;
80334;SDS011;69653;52.674;13.574;2023-07-22T11:06:37;8.90;;;3.50;;
80334;SDS011;69653;52.674;13.574;2023-07-22T11:09:04;10.13;;;3.17;;
80334;SDS011;69653;52.674;13.574;2023-07-22T11:17:14;6.15;;;2.70;;
80334;SDS011;69653;52.674;13.574;2023-07-22T11:19:40;3.97;;;1.63;;
80334;SDS011;69653;52.674;13.574;2023-07-22T11:22:06;4.43;;;1.50;;
80334;SDS011;69653;52.674;13.574;2023-07-22T11:24:32;4.20;;;1.60;;
80334;SDS011;69653;52.674;13.574;2023-07-22T11:27:05;4.32;;;1.58;;
80334;SDS011;69653;52.674;13.574;2023-07-22T11:29:33;5.22;;;1.52;;
80334;SDS011;69653;52.674;13.574;2023-07-22T11:31:59;5.32;;;2.00;;
80334;SDS011;69653;52.674;13.574;2023-07-22T11:34:24;5.15;;;1.92;;
80334;SDS011;69653;52.674;13.574;2023-07-22T11:36:51;5.13;;;1.55;;
80334;SDS011;69653;52.674;13.574;2023-07-22T11:39:19;6.13;;;2.10;;
80334;SDS011;69653;52.674;13.574;2023-07-22T11:41:45;4.65;;;1.65;;
80334;SDS011;69653;52.674;13.574;2023-07-22T11:44:13;5.38;;;1.95;;
80334;SDS011;69653;52.674;13.574;2023-07-22T11:49:38;3.70;;;1.33;;
80334;SDS011;69653;52.674;13.574;2023-07-22T11:52:17;4.70;;;1.52;;
80334;SDS011;69653;52.674;13.574;2023-07-22T11:54:43;4.78;;;1.95;;
80334;SDS011;69653;52.674;13.574;2023-07-22T11:57:10;4.45;;;1.80;;
80334;SDS011;69653;52.674;13.574;2023-07-22T11:59:43;5.45;;;1.63;;
80334;SDS011;69653;52.674;13.574;2023-07-22T12:02:14;3.70;;;1.63;;
80334;SDS011;69653;52.674;13.574;2023-07-22T12:04:41;4.03;;;1.67;;
80334;SDS011;69653;52.674;13.574;2023-07-22T12:07:21;4.30;;;1.90;;
80334;SDS011;69653;52.674;13.574;2023-07-22T12:12:16;4.95;;;1.50;;
80334;SDS011;69653;52.674;13.574;2023-07-22T12:14:41;4.90;;;1.60;;
80334;SDS011;69653;52.674;13.574;2023-07-22T12:17:08;5.00;;;2.10;;
80334;SDS011;69653;52.674;13.574;2023-07-22T12:19:34;5.20;;;2.13;;
80334;SDS011;69653;52.674;13.574;2023-07-22T12:22:00;5.85;;;2.42;;
80334;SDS011;69653;52.674;13.574;2023-07-22T12:24:26;5.45;;;2.03;;
80334;SDS011;69653;52.674;13.574;2023-07-22T12:26:52;5.07;;;2.53;;
80334;SDS011;69653;52.674;13.574;2023-07-22T12:29:18;7.67;;;3.13;;
80334;SDS011;69653;52.674;13.574;2023-07-22T12:31:43;5.03;;;2.08;;
80334;SDS011;69653;52.674;13.574;2023-07-22T12:34:08;4.50;;;2.00;;
80334;SDS011;69653;52.674;13.574;2023-07-22T12:36:34;5.53;;;2.30;;
80334;SDS011;69653;52.674;13.574;2023-07-22T12:38:59;4.80;;;1.77;;
80334;SDS011;69653;52.674;13.574;2023-07-22T12:41:24;4.93;;;1.80;;
80334;SDS011;69653;52.674;13.574;2023-07-22T12:43:50;4.20;;;1.87;;
80334;SDS011;69653;52.674;13.574;2023-07-22T12:46:15;5.47;;;2.30;;
80334;SDS011;69653;52.674;13.574;2023-07-22T12:48:41;5.65;;;2.13;;
80334;SDS011;69653;52.674;13.574;2023-07-22T12:51:06;5.75;;;1.90;;
80334;SDS011;69653;52.674;13.574;2023-07-22T12:53:32;4.67;;;2.00;;
80334;SDS011;69653;52.674;13.574;2023-07-22T12:55:57;5.80;;;2.28;;
80334;SDS011;69653;52.674;13.574;2023-07-22T12:58:22;6.83;;;1.80;;
80334;SDS011;69653;52.674;13.574;2023-07-22T13:00:48;4.33;;;2.00;;
80334;SDS011;69653;52.674;13.574;2023-07-22T13:03:13;5.73;;;2.50;;
80334;SDS011;69653;52.674;13.574;2023-07-22T13:05:39;4.80;;;2.10;;
80334;SDS011;69653;52.674;13.574;2023-07-22T13:08:04;4.70;;;2.42;;
80334;SDS011;69653;52.674;13.574;2023-07-22T13:10:30;6.90;;;2.63;;
80334;SDS011;69653;52.674;13.574;2023-07-22T13:13:04;4.35;;;2.05;;
80334;SDS011;69653;52.674;13.574;2023-07-22T13:15:30;4.88;;;2.15;;
80334;SDS011;69653;52.674;13.574;2023-07-22T13:17:55;4.63;;;2.20;;
80334;SDS011;69653;52.674;13.574;2023-07-22T13:20:20;4.17;;;1.87;;
80334;SDS011;69653;52.674;13.574;2023-07-22T13:22:46;6.57;;;2.70;;
80334;SDS011;69653;52.674;13.574;2023-07-22T13:25:11;5.15;;;2.10;;
80334;SDS011;69653;52.674;13.574;2023-07-22T13:27:36;4.93;;;2.30;;
80334;SDS011;69653;52.674;13.574;2023-07-22T13:30:05;5.25;;;2.38;;
80334;SDS011;69653;52.674;13.574;2023-07-22T13:32:34;5.75;;;2.40;;
80334;SDS011;69653;52.674;13.574;2023-07-22T13:34:59;6.33;;;2.73;;
80334;SDS011;69653;52.674;13.574;2023-07-22T13:37:25;5.40;;;2.60;;
80334;SDS011;69653;52.674;13.574;2023-07-22T13:39:50;5.15;;;2.38;;
80334;SDS011;69653;52.674;13.574;2023-07-22T13:42:16;4.75;;;2.13;;
80334;SDS011;69653;52.674;13.574;2023-07-22T13:44:41;4.53;;;2.00;;
80334;SDS011;69653;52.674;13.574;2023-07-22T13:47:06;5.50;;;2.53;;
80334;SDS011;69653;52.674;13.574;2023-07-22T13:49:32;4.57;;;2.10;;
80334;SDS011;69653;52.674;13.574;2023-07-22T13:51:57;4.57;;;2.30;;
80334;SDS011;69653;52.674;13.574;2023-07-22T13:54:22;5.47;;;2.30;;
80334;SDS011;69653;52.674;13.574;2023-07-22T13:56:48;7.17;;;2.30;;
80334;SDS011;69653;52.674;13.574;2023-07-22T13:59:13;5.43;;;2.50;;
80334;SDS011;69653;52.674;13.574;2023-07-22T14:01:39;5.22;;;2.63;;
80334;SDS011;69653;52.674;13.574;2023-07-22T14:04:04;5.72;;;2.30;;
80334;SDS011;69653;52.674;13.574;2023-07-22T14:06:30;7.73;;;2.97;;
80334;SDS011;69653;52.674;13.574;2023-07-22T14:08:56;9.55;;;4.78;;
80334;SDS011;69653;52.674;13.574;2023-07-22T14:11:21;11.43;;;5.40;;
80334;SDS011;69653;52.674;13.574;2023-07-22T14:13:46;6.18;;;2.83;;
80334;SDS011;69653;52.674;13.574;2023-07-22T14:16:12;9.97;;;4.93;;
80334;SDS011;69653;52.674;13.574;2023-07-22T14:18:37;6.30;;;2.77;;
80334;SDS011;69653;52.674;13.574;2023-07-22T14:21:02;5.87;;;2.70;;
80334;SDS011;69653;52.674;13.574;2023-07-22T14:23:28;6.60;;;2.97;;
80334;SDS011;69653;52.674;13.574;2023-07-22T14:25:53;5.32;;;2.60;;
80334;SDS011;69653;52.674;13.574;2023-07-22T14:28:18;6.93;;;2.67;;
80334;SDS011;69653;52.674;13.574;2023-07-22T14:30:44;5.50;;;2.60;;
80334;SDS011;69653;52.674;13.574;2023-07-22T14:33:09;6.25;;;2.53;;
80334;SDS011;69653;52.674;13.574;2023-07-22T14:35:35;6.23;;;2.83;;
80334;SDS011;69653;52.674;13.574;2023-07-22T14:38:00;4.90;;;2.65;;
80334;SDS011;69653;52.674;13.574;2023-07-22T14:40:26;4.47;;;2.27;;
80334;SDS011;69653;52.674;13.574;2023-07-22T14:42:51;6.18;;;2.60;;
80334;SDS011;69653;52.674;13.574;2023-07-22T14:45:17;6.97;;;3.05;;
80334;SDS011;69653;52.674;13.574;2023-07-22T14:47:42;5.63;;;2.77;;
80334;SDS011;69653;52.674;13.574;2023-07-22T14:50:08;5.63;;;2.92;;
80334;SDS011;69653;52.674;13.574;2023-07-22T14:52:33;5.20;;;2.67;;
80334;SDS011;69653;52.674;13.574;2023-07-22T14:54:59;6.10;;;3.10;;